createdAt,value
2023-01-21T00:03:25.032Z,3.33
2023-01-21T00:09:30.439Z,3.31
2023-01-21T00:15:45.487Z,3.40
2023-01-21T00:21:44.659Z,3.49
2023-01-21T00:28:00.219Z,3.52
2023-01-21T00:34:13.122Z,3.53
2023-01-21T00:39:56.869Z,3.51
2023-01-21T00:45:23.039Z,3.52
2023-01-21T00:51:16.679Z,3.49
2023-01-21T00:56:43.745Z,3.48
2023-01-21T01:02:11.578Z,3.43
2023-01-21T01:08:28.527Z,3.38
2023-01-21T01:14:35.618Z,3.34
2023-01-21T01:20:59.743Z,3.41
2023-01-21T01:27:12.935Z,3.51
2023-01-21T01:33:10.578Z,3.53
2023-01-21T01:39:24.588Z,3.61
2023-01-21T01:45:20.318Z,3.59
2023-01-21T01:51:28.053Z,3.47
2023-01-21T01:57:39.037Z,3.41
2023-01-21T02:04:01.574Z,3.37
2023-01-21T02:09:55.329Z,3.32
2023-01-21T02:15:51.947Z,3.31
2023-01-21T02:22:10.010Z,3.35
2023-01-21T02:35:11.442Z,3.41
2023-01-21T02:41:36.113Z,3.34
2023-01-21T02:48:12.211Z,3.29
2023-01-21T03:00:23.393Z,3.24
2023-01-21T03:13:05.650Z,3.13
2023-01-21T03:26:45.381Z,3.22
2023-01-21T03:33:09.564Z,3.26
2023-01-21T03:39:34.028Z,3.25
2023-01-21T03:45:51.549Z,3.32
2023-01-21T03:51:36.894Z,3.33
2023-01-21T03:57:40.901Z,3.30
2023-01-21T04:04:05.695Z,3.29
2023-01-21T04:10:28.558Z,3.26
2023-01-21T04:16:36.073Z,3.25
2023-01-21T04:22:23.637Z,3.27
2023-01-21T04:28:37.140Z,3.33
2023-01-21T04:40:50.773Z,3.62
2023-01-21T04:50:27.592Z,3.61
2023-01-21T05:06:49.186Z,3.68
2023-01-21T05:12:56.667Z,3.61
2023-01-21T05:19:04.119Z,3.62
2023-01-21T07:06:18.135Z,3.34
2023-01-21T07:11:42.333Z,3.35
2023-01-21T07:18:06.631Z,3.38
2023-01-21T07:24:21.036Z,3.42
2023-01-21T07:30:45.412Z,3.52
2023-01-21T07:37:09.616Z,3.67
2023-01-21T07:42:56.899Z,3.78
2023-01-21T07:48:52.449Z,3.84
2023-01-21T07:54:57.508Z,3.84
2023-01-21T08:01:38.177Z,3.80
2023-01-21T08:07:45.199Z,3.77
2023-01-21T08:14:14.120Z,3.78
2023-01-21T08:20:22.274Z,3.75
2023-01-21T08:26:50.555Z,3.71
2023-01-21T08:33:19.405Z,3.73
2023-01-21T08:39:56.274Z,3.76
2023-01-21T08:46:46.424Z,3.86
2023-01-21T08:53:07.655Z,3.90
2023-01-21T09:06:03.635Z,4.04
2023-01-21T09:11:48.823Z,4.04
2023-01-21T09:17:44.972Z,3.97
2023-01-21T09:23:59.525Z,3.99
2023-01-21T09:30:22.310Z,3.98
2023-01-21T09:36:07.723Z,3.98
2023-01-21T09:42:35.088Z,3.96
2023-01-21T09:48:42.016Z,4.04
2023-01-21T09:54:40.243Z,4.12
2023-01-21T10:04:29.221Z,4.24
2023-01-21T10:10:36.115Z,4.25
2023-01-21T10:17:12.772Z,4.21
2023-01-21T10:23:37.353Z,4.19
2023-01-21T10:29:32.771Z,4.35
2023-01-21T10:35:57.011Z,4.36
2023-01-21T10:42:07.543Z,4.34
2023-01-21T10:48:32.500Z,4.38
2023-01-21T10:54:55.021Z,4.35
2023-01-21T11:01:10.300Z,4.31
2023-01-21T11:07:40.984Z,4.41
2023-01-21T11:13:39.632Z,4.57
2023-01-21T11:20:06.817Z,4.61
2023-01-21T11:26:41.869Z,4.64
2023-01-21T11:33:06.453Z,4.72
2023-01-21T11:39:14.506Z,4.78
2023-01-21T11:46:34.894Z,4.86
2023-01-21T11:52:27.308Z,4.92
2023-01-21T11:58:21.307Z,4.84
2023-01-21T13:06:14.159Z,4.63
2023-01-21T13:12:32.163Z,4.64
2023-01-21T13:18:59.383Z,4.69
2023-01-21T13:25:05.163Z,4.63
2023-01-21T13:31:29.777Z,4.57
2023-01-21T13:37:24.342Z,4.53
2023-01-21T13:44:00.386Z,4.44
2023-01-21T14:12:31.538Z,4.41
2023-01-21T14:47:47.785Z,4.09
2023-01-21T14:54:08.596Z,4.07
2023-01-21T14:59:46.560Z,4.06
2023-01-21T15:07:25.383Z,4.05
2023-01-21T15:20:53.304Z,4.43
2023-01-21T15:34:23.506Z,4.21
2023-01-21T15:41:04.339Z,4.05
2023-01-21T15:47:04.282Z,3.89
2023-01-21T16:01:03.414Z,3.76
2023-01-21T16:07:28.807Z,3.75
2023-01-21T16:14:04.779Z,3.81
2023-01-21T16:19:48.781Z,3.87
2023-01-21T16:26:02.982Z,3.90
2023-01-21T16:32:34.189Z,3.89
2023-01-21T16:39:42.880Z,3.91
2023-01-21T16:45:51.336Z,3.87
2023-01-21T16:51:14.166Z,3.83
2023-01-21T17:05:17.212Z,3.73
2023-01-21T18:28:55.278Z,3.85
2023-01-21T18:35:19.783Z,4.12
2023-01-21T18:41:34.113Z,4.11
2023-01-21T18:47:52.199Z,4.05
2023-01-21T18:53:50.827Z,4.02
2023-01-21T18:59:20.856Z,4.03
2023-01-21T19:04:47.848Z,3.95
2023-01-21T19:11:15.126Z,3.86
2023-01-21T19:17:04.205Z,3.77
2023-01-21T19:22:46.909Z,3.73
2023-01-21T19:28:52.313Z,3.70
2023-01-21T19:34:43.237Z,3.70
2023-01-21T19:40:53.855Z,3.73
2023-01-21T19:46:30.520Z,4.40
2023-01-21T19:52:37.569Z,5.34
2023-01-21T20:02:02.770Z,4.67
2023-01-21T20:08:29.158Z,4.42
2023-01-21T20:14:17.219Z,4.32
2023-01-21T20:20:07.764Z,4.17
2023-01-21T20:26:44.674Z,4.04
2023-01-21T20:32:27.548Z,3.98
2023-01-21T20:44:17.486Z,3.80
2023-01-21T20:50:02.011Z,3.79
2023-01-21T20:55:55.492Z,3.76
2023-01-21T21:01:56.441Z,3.81
2023-01-21T21:07:34.096Z,3.85
2023-01-21T21:13:02.663Z,3.83
2023-01-21T21:18:43.007Z,3.78
2023-01-21T21:25:07.369Z,3.73
2023-01-21T22:04:03.231Z,3.54
2023-01-21T22:10:21.027Z,3.59
2023-01-21T22:16:31.015Z,3.65
2023-01-21T22:22:55.984Z,3.65
2023-01-21T22:28:59.078Z,3.63
2023-01-21T22:34:46.037Z,3.60
2023-01-21T22:40:35.493Z,3.56
2023-01-21T22:46:42.396Z,3.54
2023-01-21T22:52:54.171Z,3.51
2023-01-21T23:05:50.561Z,3.46
2023-01-21T23:11:52.709Z,3.44
2023-01-21T23:17:18.793Z,3.47
2023-01-21T23:23:16.021Z,3.55
2023-01-21T23:29:26.025Z,3.62
2023-01-21T23:35:50.403Z,3.63
2023-01-21T23:42:15.563Z,3.65
2023-01-21T23:48:20.446Z,3.60
2023-01-21T23:54:45.382Z,3.57
